createdAt,value
2018-05-19T00:00:29.176Z,11.10
2018-05-19T00:02:56.752Z,11.10
2018-05-19T00:05:24.304Z,11.20
2018-05-19T00:07:51.874Z,11.20
2018-05-19T00:10:19.416Z,11.30
2018-05-19T00:12:46.962Z,11.40
2018-05-19T00:15:14.506Z,11.40
2018-05-19T00:17:42.078Z,11.40
2018-05-19T00:20:09.621Z,11.40
2018-05-19T00:22:43.546Z,11.50
2018-05-19T00:25:11.142Z,11.40
2018-05-19T00:27:38.711Z,11.40
2018-05-19T00:30:06.291Z,11.40
2018-05-19T00:32:33.853Z,11.40
2018-05-19T00:35:01.405Z,11.30
2018-05-19T00:37:28.978Z,11.30
2018-05-19T00:39:56.547Z,11.40
2018-05-19T00:42:24.126Z,11.30
2018-05-19T00:44:51.679Z,11.30
2018-05-19T00:47:19.286Z,11.30
2018-05-19T00:49:46.835Z,11.30
2018-05-19T00:52:15.146Z,11.30
2018-05-19T00:54:54.762Z,11.30
2018-05-19T00:57:23.103Z,11.40
2018-05-19T00:59:50.664Z,11.40
2018-05-19T01:02:18.211Z,11.40
2018-05-19T01:04:45.786Z,11.30
2018-05-19T01:07:13.355Z,11.30
2018-05-19T01:09:40.895Z,11.30
2018-05-19T01:12:08.439Z,11.30
2018-05-19T01:14:36.001Z,11.30
2018-05-19T01:17:03.639Z,11.30
2018-05-19T01:19:31.170Z,11.30
2018-05-19T01:21:58.723Z,11.20
2018-05-19T01:24:26.306Z,11.20
2018-05-19T01:26:53.855Z,11.20
2018-05-19T01:29:21.395Z,11.30
2018-05-19T01:31:48.999Z,11.30
2018-05-19T01:34:16.574Z,11.30
2018-05-19T01:36:44.146Z,11.30
2018-05-19T01:39:11.694Z,11.40
2018-05-19T01:41:39.225Z,11.40
2018-05-19T01:44:06.795Z,11.40
2018-05-19T01:46:34.374Z,11.40
2018-05-19T01:49:01.913Z,11.30
2018-05-19T01:51:29.454Z,11.40
2018-05-19T01:53:57.770Z,11.40
2018-05-19T01:56:25.309Z,11.40
2018-05-19T01:58:52.862Z,11.40
2018-05-19T02:01:21.179Z,11.30
2018-05-19T02:03:48.733Z,11.40
2018-05-19T02:06:16.285Z,11.30
2018-05-19T02:08:43.845Z,11.30
2018-05-19T02:11:11.409Z,11.30
2018-05-19T02:13:38.986Z,11.30
2018-05-19T02:16:06.559Z,11.30
2018-05-19T02:18:34.093Z,11.30
2018-05-19T02:21:02.413Z,11.30
2018-05-19T02:23:29.987Z,11.30
2018-05-19T02:25:57.534Z,11.30
2018-05-19T02:28:25.105Z,11.30
2018-05-19T02:30:52.674Z,11.30
2018-05-19T02:33:20.214Z,11.30
2018-05-19T02:35:47.803Z,11.30
2018-05-19T02:38:15.346Z,11.30
2018-05-19T02:40:42.895Z,11.30
2018-05-19T02:43:10.437Z,11.30
2018-05-19T02:45:38.751Z,11.20
2018-05-19T02:48:06.285Z,11.20
2018-05-19T02:50:34.613Z,11.20
2018-05-19T02:53:02.191Z,11.20
2018-05-19T02:55:29.752Z,11.20
2018-05-19T02:57:57.308Z,11.20
2018-05-19T03:00:24.849Z,11.20
2018-05-19T03:02:52.394Z,11.20
2018-05-19T03:05:20.698Z,11.20
2018-05-19T03:07:48.247Z,11.20
2018-05-19T03:10:15.806Z,11.20
2018-05-19T03:12:44.142Z,11.30
2018-05-19T03:15:11.696Z,11.20
2018-05-19T03:17:39.243Z,11.20
2018-05-19T03:20:06.791Z,11.20
2018-05-19T03:22:34.347Z,11.20
2018-05-19T03:25:01.914Z,11.20
2018-05-19T03:27:30.217Z,11.20
2018-05-19T03:29:57.753Z,11.20
2018-05-19T03:32:26.073Z,11.20
2018-05-19T03:34:53.609Z,11.20
2018-05-19T03:37:21.179Z,11.20
2018-05-19T03:39:48.730Z,11.30
2018-05-19T03:42:17.066Z,11.30
2018-05-19T03:44:44.619Z,11.30
2018-05-19T03:47:12.157Z,11.30
2018-05-19T03:49:39.703Z,11.30
2018-05-19T03:52:07.283Z,11.30
2018-05-19T03:54:34.890Z,11.30
2018-05-19T03:57:14.358Z,11.30
2018-05-19T03:59:54.491Z,11.30
2018-05-19T04:02:33.966Z,11.30
2018-05-19T04:05:01.518Z,11.30
2018-05-19T04:07:29.825Z,11.30
2018-05-19T04:09:57.460Z,11.30
2018-05-19T04:12:24.970Z,11.40
2018-05-19T04:14:52.514Z,11.40
2018-05-19T04:17:20.073Z,11.40
2018-05-19T04:19:47.618Z,11.40
2018-05-19T04:22:15.912Z,11.30
2018-05-19T04:24:43.490Z,11.30
2018-05-19T04:27:11.035Z,11.30
2018-05-19T04:29:38.581Z,11.30
2018-05-19T04:32:06.922Z,11.50
2018-05-19T04:34:34.458Z,11.40
2018-05-19T04:37:02.002Z,11.50
2018-05-19T04:39:29.566Z,11.50
2018-05-19T04:41:57.993Z,11.50
2018-05-19T04:44:25.548Z,11.50
2018-05-19T04:46:53.097Z,11.50
2018-05-19T04:49:20.666Z,11.50
2018-05-19T04:51:48.229Z,11.50
2018-05-19T04:54:15.778Z,11.50
2018-05-19T04:56:43.392Z,11.50
2018-05-19T04:59:10.954Z,11.50
2018-05-19T05:01:38.494Z,11.60
2018-05-19T05:04:06.154Z,11.60
2018-05-19T05:06:33.730Z,11.60
2018-05-19T05:09:01.269Z,11.70
2018-05-19T05:11:28.815Z,11.70
2018-05-19T05:13:57.181Z,11.70
2018-05-19T05:16:24.695Z,11.70
2018-05-19T05:18:52.262Z,11.80
2018-05-19T05:21:19.812Z,11.80
2018-05-19T05:23:47.382Z,11.80
2018-05-19T05:26:14.952Z,11.80
2018-05-19T05:28:42.526Z,11.80
2018-05-19T05:31:10.069Z,11.70
2018-05-19T05:33:37.614Z,11.70
2018-05-19T05:36:05.932Z,11.80
2018-05-19T05:38:33.483Z,11.80
2018-05-19T05:41:01.054Z,11.80
2018-05-19T05:43:28.601Z,11.90
2018-05-19T05:45:56.204Z,11.90
2018-05-19T05:48:23.750Z,11.90
2018-05-19T05:50:51.298Z,11.90
2018-05-19T05:53:18.837Z,11.90
2018-05-19T05:55:47.193Z,12.00
2018-05-19T05:58:14.774Z,12.00
2018-05-19T06:00:43.114Z,12.10
2018-05-19T06:03:10.695Z,12.10
2018-05-19T06:05:38.271Z,12.20
2018-05-19T06:08:05.847Z,12.20
2018-05-19T06:10:34.170Z,12.40
2018-05-19T06:13:02.108Z,12.40
2018-05-19T06:15:30.419Z,12.40
2018-05-19T06:17:57.972Z,12.40
2018-05-19T06:20:25.533Z,12.50
2018-05-19T06:22:53.087Z,12.50
2018-05-19T06:25:21.422Z,12.40
2018-05-19T06:27:48.964Z,12.40
2018-05-19T06:30:16.511Z,12.50
2018-05-19T06:32:44.082Z,12.50
2018-05-19T06:35:11.663Z,12.50
2018-05-19T06:37:39.239Z,12.50
2018-05-19T06:40:06.791Z,12.60
2018-05-19T06:42:35.258Z,12.60
2018-05-19T06:45:02.815Z,12.60
2018-05-19T06:47:30.382Z,12.70
2018-05-19T06:49:57.921Z,12.60
2018-05-19T06:52:26.262Z,12.50
2018-05-19T06:54:53.814Z,12.50
2018-05-19T06:57:21.389Z,12.50
2018-05-19T06:59:48.934Z,12.60
2018-05-19T07:02:16.532Z,12.60
2018-05-19T07:04:44.116Z,12.60
2018-05-19T07:07:11.655Z,12.70
2018-05-19T07:09:39.214Z,12.80
2018-05-19T07:12:06.775Z,12.90
2018-05-19T07:14:34.349Z,13.00
2018-05-19T07:17:01.910Z,13.10
2018-05-19T07:19:29.469Z,13.10
2018-05-19T07:21:57.042Z,13.20
2018-05-19T07:24:24.581Z,13.20
2018-05-19T07:26:52.176Z,13.20
2018-05-19T07:29:19.728Z,13.30
2018-05-19T07:31:47.275Z,13.40
2018-05-19T07:34:14.853Z,13.40
2018-05-19T07:36:42.397Z,13.50
2018-05-19T07:39:09.937Z,13.60
2018-05-19T07:41:38.267Z,13.80
2018-05-19T07:44:05.846Z,13.80
2018-05-19T07:46:33.407Z,13.90
2018-05-19T07:49:00.954Z,14.00
2018-05-19T07:51:28.510Z,14.10
2018-05-19T07:53:56.074Z,14.30
2018-05-19T07:56:23.664Z,14.40
2018-05-19T07:58:51.258Z,14.40
2018-05-19T08:01:19.673Z,14.50
2018-05-19T08:03:47.222Z,14.50
2018-05-19T08:06:14.863Z,14.40
2018-05-19T08:08:42.439Z,14.40
2018-05-19T08:11:10.769Z,14.40
2018-05-19T08:13:38.343Z,14.40
2018-05-19T08:16:05.923Z,14.50
2018-05-19T08:18:33.529Z,14.40
2018-05-19T08:21:01.100Z,14.20
2018-05-19T08:23:28.653Z,14.30
2018-05-19T08:25:57.014Z,14.40
2018-05-19T08:28:25.467Z,14.50
2018-05-19T08:30:53.731Z,14.60
2018-05-19T08:33:21.278Z,14.60
2018-05-19T08:35:48.817Z,14.60
2018-05-19T08:38:17.159Z,14.80
2018-05-19T08:40:44.711Z,14.80
2018-05-19T08:43:12.279Z,14.90
2018-05-19T08:45:39.834Z,14.90
2018-05-19T08:48:07.393Z,14.90
2018-05-19T08:50:35.008Z,14.90
2018-05-19T08:53:02.553Z,14.90
2018-05-19T08:55:30.183Z,15.00
2018-05-19T08:57:57.755Z,15.00
2018-05-19T09:00:25.366Z,15.20
2018-05-19T09:02:52.941Z,15.30
2018-05-19T09:05:21.327Z,15.50
2018-05-19T09:07:49.638Z,15.50
2018-05-19T09:10:17.176Z,15.50
2018-05-19T09:12:45.526Z,15.60
2018-05-19T09:15:13.082Z,15.50
2018-05-19T09:17:40.642Z,15.60
2018-05-19T09:20:08.199Z,15.70
2018-05-19T09:22:35.778Z,15.90
2018-05-19T09:25:03.356Z,16.10
2018-05-19T09:27:30.906Z,16.10
2018-05-19T09:29:58.468Z,16.10
2018-05-19T09:32:26.043Z,16.00
2018-05-19T09:34:53.596Z,15.90
2018-05-19T09:37:21.190Z,15.90
2018-05-19T09:39:49.530Z,15.90
2018-05-19T09:42:17.102Z,15.90
2018-05-19T09:44:44.681Z,15.90
2018-05-19T09:47:12.256Z,15.90
2018-05-19T09:49:39.836Z,16.00
2018-05-19T09:52:08.155Z,16.00
2018-05-19T09:54:35.699Z,16.00
2018-05-19T09:57:03.247Z,16.00
2018-05-19T09:59:31.573Z,16.10
2018-05-19T10:01:59.122Z,16.10
2018-05-19T10:04:26.676Z,16.20
2018-05-19T10:06:54.295Z,16.30
2018-05-19T10:09:21.847Z,16.40
2018-05-19T10:11:49.419Z,16.60
2018-05-19T10:14:16.988Z,16.80
2018-05-19T10:16:44.558Z,17.00
2018-05-19T10:19:12.168Z,17.00
2018-05-19T10:21:39.778Z,17.10
2018-05-19T10:24:08.233Z,17.00
2018-05-19T10:26:36.727Z,17.00
2018-05-19T10:29:04.299Z,16.90
2018-05-19T10:31:33.847Z,16.80
2018-05-19T10:34:02.531Z,16.90
2018-05-19T10:36:30.090Z,16.80
2018-05-19T10:38:57.682Z,16.90
2018-05-19T10:41:26.193Z,17.00
2018-05-19T10:43:53.781Z,17.00
2018-05-19T10:46:31.558Z,17.20
2018-05-19T10:48:59.138Z,17.20
2018-05-19T10:51:26.693Z,17.20
2018-05-19T10:53:56.116Z,17.00
2018-05-19T10:56:24.458Z,16.80
2018-05-19T10:58:52.062Z,16.80
2018-05-19T11:01:19.833Z,16.70
2018-05-19T11:03:47.390Z,16.80
2018-05-19T11:06:14.935Z,16.80
2018-05-19T11:08:42.485Z,16.70
2018-05-19T11:11:10.034Z,16.80
2018-05-19T11:13:38.375Z,16.90
2018-05-19T11:16:05.942Z,16.80
2018-05-19T11:18:33.578Z,17.00
2018-05-19T11:21:01.124Z,17.40
2018-05-19T11:23:28.679Z,17.80
2018-05-19T11:25:56.992Z,17.90
2018-05-19T11:28:24.554Z,17.90
2018-05-19T11:30:53.067Z,18.00
2018-05-19T11:33:20.640Z,17.90
2018-05-19T11:35:48.247Z,18.00
2018-05-19T11:38:16.036Z,18.00
2018-05-19T11:40:43.599Z,17.90
2018-05-19T11:43:11.515Z,18.30
2018-05-19T11:45:39.071Z,18.60
2018-05-19T11:48:06.609Z,18.80
2018-05-19T11:50:34.191Z,18.90
2018-05-19T11:53:01.776Z,19.20
2018-05-19T11:55:29.355Z,19.50
2018-05-19T11:57:57.695Z,19.40
2018-05-19T12:00:25.229Z,19.30
2018-05-19T12:02:52.848Z,19.30
2018-05-19T12:05:21.215Z,19.20
2018-05-19T12:07:49.165Z,19.10
2018-05-19T12:10:17.932Z,19.10
2018-05-19T12:12:45.531Z,19.40
2018-05-19T12:15:13.108Z,19.60
2018-05-19T12:17:40.690Z,19.60
2018-05-19T12:20:08.270Z,19.40
2018-05-19T12:22:36.729Z,19.30
2018-05-19T12:25:04.291Z,19.20
2018-05-19T12:27:35.858Z,19.10
2018-05-19T12:30:03.502Z,19.10
2018-05-19T12:32:31.056Z,19.10
2018-05-19T12:34:58.656Z,19.20
2018-05-19T12:37:26.227Z,19.50
2018-05-19T12:39:54.623Z,19.80
2018-05-19T12:42:22.209Z,19.80
2018-05-19T12:44:49.756Z,19.60
2018-05-19T12:47:17.300Z,19.40
2018-05-19T12:49:44.851Z,19.30
2018-05-19T12:52:12.411Z,19.20
2018-05-19T12:54:39.960Z,19.40
2018-05-19T12:57:07.497Z,19.20
2018-05-19T12:59:35.059Z,19.10
2018-05-19T13:02:02.634Z,19.10
2018-05-19T13:04:30.215Z,19.10
2018-05-19T13:06:57.831Z,19.20
2018-05-19T13:09:26.513Z,19.50
2018-05-19T13:11:54.162Z,19.50
2018-05-19T13:14:21.705Z,19.60
2018-05-19T13:16:49.266Z,19.80
2018-05-19T13:19:16.818Z,19.90
2018-05-19T13:21:44.384Z,20.00
2018-05-19T13:24:11.939Z,20.10
2018-05-19T13:26:39.523Z,20.20
2018-05-19T13:29:07.402Z,20.20
2018-05-19T13:31:34.979Z,19.80
2018-05-19T13:34:02.544Z,19.90
2018-05-19T13:36:30.096Z,20.10
2018-05-19T13:38:57.639Z,20.10
2018-05-19T13:41:25.262Z,20.30
2018-05-19T13:43:53.603Z,20.40
2018-05-19T13:46:21.242Z,20.30
2018-05-19T13:48:48.814Z,20.50
2018-05-19T13:51:16.395Z,20.50
2018-05-19T13:53:43.943Z,20.70
2018-05-19T13:56:11.515Z,20.80
2018-05-19T13:58:39.156Z,20.70
2018-05-19T14:01:07.291Z,20.80
2018-05-19T14:03:34.867Z,20.70
2018-05-19T14:06:03.204Z,20.50
2018-05-19T14:08:30.780Z,20.60
2018-05-19T14:10:58.368Z,20.60
2018-05-19T14:13:25.929Z,20.70
2018-05-19T14:15:53.506Z,20.70
2018-05-19T14:18:21.826Z,20.10
2018-05-19T14:20:49.364Z,20.10
2018-05-19T14:23:16.909Z,19.80
2018-05-19T14:25:44.456Z,19.70
2018-05-19T14:28:12.003Z,19.70
2018-05-19T14:30:39.584Z,19.80
2018-05-19T14:33:07.160Z,19.60
2018-05-19T14:35:34.732Z,19.60
2018-05-19T14:38:02.300Z,19.80
2018-05-19T14:40:29.951Z,20.00
2018-05-19T14:42:57.435Z,20.20
2018-05-19T14:45:25.767Z,20.10
2018-05-19T14:47:53.309Z,20.10
2018-05-19T14:50:20.860Z,20.10
2018-05-19T14:52:58.440Z,20.10
2018-05-19T14:55:26.755Z,20.10
2018-05-19T14:57:54.347Z,20.10
2018-05-19T15:00:21.924Z,20.00
2018-05-19T15:02:49.566Z,19.90
2018-05-19T15:05:17.122Z,19.80
2018-05-19T15:07:44.716Z,20.00
2018-05-19T15:10:12.268Z,20.20
2018-05-19T15:12:39.813Z,20.10
2018-05-19T15:15:07.380Z,19.90
2018-05-19T15:17:34.922Z,19.90
2018-05-19T15:20:02.532Z,19.80
2018-05-19T15:22:30.267Z,19.70
2018-05-19T15:24:57.847Z,19.60
2018-05-19T15:27:25.421Z,19.60
2018-05-19T15:29:53.006Z,19.70
2018-05-19T15:32:20.574Z,19.70
2018-05-19T15:34:48.186Z,19.70
2018-05-19T15:37:15.737Z,19.60
2018-05-19T15:39:43.311Z,19.80
2018-05-19T15:42:10.854Z,20.00
2018-05-19T15:44:39.190Z,20.30
2018-05-19T15:47:06.764Z,20.30
2018-05-19T15:49:34.331Z,20.40
2018-05-19T15:52:01.926Z,20.50
2018-05-19T15:54:30.273Z,20.60
2018-05-19T15:56:57.837Z,20.60
2018-05-19T15:59:25.384Z,20.60
2018-05-19T16:01:53.004Z,20.70
2018-05-19T16:04:20.555Z,20.70
2018-05-19T16:06:48.122Z,20.70
2018-05-19T16:09:16.450Z,20.30
2018-05-19T16:11:44.024Z,20.40
2018-05-19T16:14:11.587Z,20.40
2018-05-19T16:16:39.186Z,20.50
2018-05-19T16:19:06.730Z,20.60
2018-05-19T16:21:35.116Z,20.60
2018-05-19T16:24:02.679Z,20.40
2018-05-19T16:26:30.253Z,20.00
2018-05-19T16:28:57.814Z,20.00
2018-05-19T16:31:25.349Z,20.00
2018-05-19T16:33:52.890Z,19.90
2018-05-19T16:36:20.491Z,19.90
2018-05-19T16:38:48.054Z,19.90
2018-05-19T16:41:15.591Z,20.00
2018-05-19T16:43:43.186Z,20.00
2018-05-19T16:46:10.740Z,20.10
2018-05-19T16:48:38.402Z,20.00
2018-05-19T16:51:05.889Z,20.00
2018-05-19T16:53:33.421Z,20.00
2018-05-19T16:56:00.965Z,19.90
2018-05-19T16:58:28.545Z,19.80
2018-05-19T17:00:56.099Z,19.70
2018-05-19T17:03:23.670Z,19.60
2018-05-19T17:05:51.267Z,19.70
2018-05-19T17:08:18.857Z,19.70
2018-05-19T17:10:47.168Z,19.50
2018-05-19T17:13:14.769Z,19.50
2018-05-19T17:15:42.372Z,19.40
2018-05-19T17:18:10.698Z,19.20
2018-05-19T17:20:38.251Z,19.20
2018-05-19T17:23:05.800Z,19.00
2018-05-19T17:25:33.357Z,19.00
2018-05-19T17:28:01.770Z,18.90
2018-05-19T17:30:29.240Z,18.90
2018-05-19T17:32:56.779Z,18.90
2018-05-19T17:35:24.319Z,18.90
2018-05-19T17:37:52.618Z,18.80
2018-05-19T17:40:20.962Z,18.80
2018-05-19T17:42:48.507Z,18.80
2018-05-19T17:45:16.063Z,18.70
2018-05-19T17:47:43.610Z,18.60
2018-05-19T17:50:11.166Z,18.60
2018-05-19T17:52:38.727Z,18.50
2018-05-19T17:55:06.287Z,18.40
2018-05-19T17:57:33.882Z,18.30
2018-05-19T18:00:01.416Z,18.20
2018-05-19T18:02:28.952Z,18.20
2018-05-19T18:04:56.500Z,18.10
2018-05-19T18:07:24.187Z,17.90
2018-05-19T18:09:51.711Z,17.90
2018-05-19T18:12:19.258Z,17.80
2018-05-19T18:14:46.790Z,17.80
2018-05-19T18:17:15.090Z,17.60
2018-05-19T18:19:42.663Z,17.60
2018-05-19T18:22:10.193Z,17.50
2018-05-19T18:24:38.498Z,17.30
2018-05-19T18:27:06.035Z,17.30
2018-05-19T18:29:34.534Z,17.00
2018-05-19T18:32:01.959Z,17.00
2018-05-19T18:34:29.533Z,16.90
2018-05-19T18:36:57.147Z,17.00
2018-05-19T18:39:24.688Z,17.00
2018-05-19T18:41:52.235Z,16.90
2018-05-19T18:44:20.601Z,16.50
2018-05-19T18:46:48.175Z,16.50
2018-05-19T18:49:15.705Z,16.40
2018-05-19T18:51:46.130Z,16.20
2018-05-19T18:54:13.698Z,16.00
2018-05-19T18:56:41.268Z,15.90
2018-05-19T18:59:08.834Z,15.70
2018-05-19T19:01:36.383Z,15.50
2018-05-19T19:04:04.006Z,15.40
2018-05-19T19:06:32.349Z,15.20
2018-05-19T19:08:59.923Z,15.20
2018-05-19T19:11:27.471Z,15.10
2018-05-19T19:13:55.031Z,15.00
2018-05-19T19:16:22.563Z,14.80
2018-05-19T19:18:50.130Z,14.70
2018-05-19T19:21:17.662Z,14.60
2018-05-19T19:23:45.200Z,14.50
2018-05-19T19:26:12.771Z,14.30
2018-05-19T19:28:40.354Z,14.10
2018-05-19T19:31:08.653Z,14.00
2018-05-19T19:33:36.207Z,14.00
2018-05-19T19:36:04.511Z,13.80
2018-05-19T19:38:32.127Z,13.80
2018-05-19T19:40:59.694Z,13.70
2018-05-19T19:43:27.234Z,13.60
2018-05-19T19:45:54.789Z,13.50
2018-05-19T19:48:22.366Z,13.40
2018-05-19T19:50:49.911Z,13.30
2018-05-19T19:53:17.466Z,13.20
2018-05-19T19:55:45.027Z,13.10
2018-05-19T19:58:12.601Z,12.90
2018-05-19T20:00:40.178Z,12.80
2018-05-19T20:03:07.719Z,12.60
2018-05-19T20:05:35.344Z,12.50
2018-05-19T20:08:02.906Z,12.30
2018-05-19T20:10:30.518Z,12.20
2018-05-19T20:12:58.130Z,12.10
2018-05-19T20:15:25.715Z,12.00
2018-05-19T20:17:54.034Z,11.80
2018-05-19T20:20:21.589Z,11.80
2018-05-19T20:22:49.165Z,11.60
2018-05-19T20:25:16.827Z,11.50
2018-05-19T20:27:44.420Z,11.40
2018-05-19T20:30:11.983Z,11.40
2018-05-19T20:32:39.582Z,11.40
2018-05-19T20:35:07.953Z,11.10
2018-05-19T20:37:35.543Z,11.10
2018-05-19T20:40:03.886Z,10.90
2018-05-19T20:42:31.486Z,10.90
2018-05-19T20:44:59.014Z,10.90
2018-05-19T20:47:26.599Z,10.80
2018-05-19T20:49:54.149Z,10.70
2018-05-19T20:52:21.735Z,10.60
2018-05-19T20:54:50.060Z,10.40
2018-05-19T20:57:17.659Z,10.40
2018-05-19T20:59:45.203Z,10.30
2018-05-19T21:02:12.767Z,10.20
2018-05-19T21:04:40.408Z,10.10
2018-05-19T21:07:07.979Z,10.00
2018-05-19T21:09:35.537Z,10.00
2018-05-19T21:12:03.102Z,10.00
2018-05-19T21:14:30.648Z,10.00
2018-05-19T21:16:58.960Z,9.90
2018-05-19T21:19:26.508Z,9.90
2018-05-19T21:21:54.053Z,9.90
2018-05-19T21:24:22.369Z,9.60
2018-05-19T21:26:49.946Z,9.60
2018-05-19T21:29:17.503Z,9.60
2018-05-19T21:31:45.056Z,9.60
2018-05-19T21:34:12.727Z,9.50
2018-05-19T21:36:40.267Z,9.40
2018-05-19T21:39:07.816Z,9.40
2018-05-19T21:41:36.132Z,9.30
2018-05-19T21:44:03.799Z,9.30
2018-05-19T21:46:31.364Z,9.30
2018-05-19T21:48:58.950Z,9.20
2018-05-19T21:51:26.594Z,9.20
2018-05-19T21:53:54.143Z,9.20
2018-05-19T21:56:21.723Z,9.20
2018-05-19T21:58:49.283Z,9.20
2018-05-19T22:01:16.824Z,9.10
2018-05-19T22:03:45.150Z,8.90
2018-05-19T22:06:12.701Z,8.90
2018-05-19T22:08:40.260Z,9.00
2018-05-19T22:11:07.784Z,9.00
2018-05-19T22:13:36.156Z,9.00
2018-05-19T22:16:04.484Z,9.00
2018-05-19T22:18:32.046Z,9.00
2018-05-19T22:20:59.606Z,8.90
2018-05-19T22:23:27.175Z,8.90
2018-05-19T22:25:54.720Z,8.80
2018-05-19T22:28:22.248Z,8.70
2018-05-19T22:30:49.779Z,8.60
2018-05-19T22:33:17.328Z,8.60
2018-05-19T22:35:44.908Z,8.60
2018-05-19T22:38:12.455Z,8.60
2018-05-19T22:40:40.015Z,8.50
2018-05-19T22:43:07.599Z,8.50
2018-05-19T22:45:35.131Z,8.50
2018-05-19T22:48:03.421Z,8.50
2018-05-19T22:50:31.026Z,8.40
2018-05-19T22:52:58.586Z,8.40
2018-05-19T22:55:26.147Z,8.40
2018-05-19T22:57:53.682Z,8.40
2018-05-19T23:00:23.107Z,8.50
2018-05-19T23:02:50.629Z,8.60
2018-05-19T23:05:18.950Z,8.70
2018-05-19T23:07:46.609Z,8.70
2018-05-19T23:10:14.166Z,8.80
2018-05-19T23:12:41.739Z,8.70
2018-05-19T23:15:09.282Z,8.60
2018-05-19T23:17:36.834Z,8.50
2018-05-19T23:20:05.156Z,8.10
2018-05-19T23:22:40.578Z,8.10
2018-05-19T23:25:08.159Z,8.00
2018-05-19T23:27:35.699Z,7.90
2018-05-19T23:30:03.271Z,7.90
2018-05-19T23:32:30.796Z,7.90
2018-05-19T23:34:58.330Z,7.80
2018-05-19T23:37:25.880Z,7.80
2018-05-19T23:39:53.415Z,7.70
2018-05-19T23:42:21.009Z,7.70
2018-05-19T23:44:48.571Z,7.70
2018-05-19T23:47:16.097Z,7.70
2018-05-19T23:49:44.404Z,7.70
2018-05-19T23:52:11.937Z,7.60
2018-05-19T23:54:40.345Z,7.60
2018-05-19T23:57:07.929Z,7.60
2018-05-19T23:59:35.485Z,7.60
